sensor_id;sensor_type;location;lat;lon;timestamp;pressure;altitude;pressure_sealevel;temperature;humidity
71504;BME280;59323;50.874;7.028;2023-01-25T00:00:39;103342.31;;;1.20;89.78
71504;BME280;59323;50.874;7.028;2023-01-25T00:03:04;103335.78;;;1.16;89.64
71504;BME280;59323;50.874;7.028;2023-01-25T00:05:29;103338.81;;;1.19;89.53
71504;BME280;59323;50.874;7.028;2023-01-25T00:07:55;103336.13;;;1.19;89.95
71504;BME280;59323;50.874;7.028;2023-01-25T00:10:20;103327.28;;;1.19;89.74
71504;BME280;59323;50.874;7.028;2023-01-25T00:12:45;103329.38;;;1.17;90.16
71504;BME280;59323;50.874;7.028;2023-01-25T00:15:11;103329.63;;;1.15;90.31
71504;BME280;59323;50.874;7.028;2023-01-25T00:17:36;103327.03;;;1.20;90.41
71504;BME280;59323;50.874;7.028;2023-01-25T00:20:02;103332.63;;;1.19;90.26
71504;BME280;59323;50.874;7.028;2023-01-25T00:22:27;103327.19;;;1.14;90.84
71504;BME280;59323;50.874;7.028;2023-01-25T00:24:52;103322.16;;;1.17;90.78
71504;BME280;59323;50.874;7.028;2023-01-25T00:27:18;103329.38;;;1.17;90.28
71504;BME280;59323;50.874;7.028;2023-01-25T00:29:43;103322.06;;;1.12;90.81
71504;BME280;59323;50.874;7.028;2023-01-25T00:34:45;103311.59;;;1.11;90.35
71504;BME280;59323;50.874;7.028;2023-01-25T00:37:36;103314.03;;;1.12;90.66
71504;BME280;59323;50.874;7.028;2023-01-25T00:40:04;103305.66;;;1.09;90.87
71504;BME280;59323;50.874;7.028;2023-01-25T00:42:29;103309.63;;;1.06;90.60
71504;BME280;59323;50.874;7.028;2023-01-25T00:44:55;103308.56;;;1.07;90.98
71504;BME280;59323;50.874;7.028;2023-01-25T00:47:20;103304.75;;;1.03;91.58
71504;BME280;59323;50.874;7.028;2023-01-25T00:49:46;103299.16;;;1.05;91.08
71504;BME280;59323;50.874;7.028;2023-01-25T00:52:12;103292.16;;;1.04;91.38
71504;BME280;59323;50.874;7.028;2023-01-25T00:54:37;103294.03;;;1.03;91.24
71504;BME280;59323;50.874;7.028;2023-01-25T00:57:03;103290.31;;;1.04;91.07
71504;BME280;59323;50.874;7.028;2023-01-25T00:59:29;103289.25;;;1.05;91.33
71504;BME280;59323;50.874;7.028;2023-01-25T01:01:55;103284.47;;;1.07;91.71
71504;BME280;59323;50.874;7.028;2023-01-25T01:04:20;103295.53;;;1.11;91.43
71504;BME280;59323;50.874;7.028;2023-01-25T01:06:49;103288.31;;;1.11;91.50
71504;BME280;59323;50.874;7.028;2023-01-25T01:09:16;103292.84;;;1.11;91.56
71504;BME280;59323;50.874;7.028;2023-01-25T01:11:42;103281.56;;;1.09;91.33
71504;BME280;59323;50.874;7.028;2023-01-25T01:14:08;103277.03;;;1.09;91.52
71504;BME280;59323;50.874;7.028;2023-01-25T01:16:33;103282.63;;;1.08;91.30
71504;BME280;59323;50.874;7.028;2023-01-25T01:18:59;103272.13;;;1.06;91.48
71504;BME280;59323;50.874;7.028;2023-01-25T01:21:24;103283.56;;;1.02;91.40
71504;BME280;59323;50.874;7.028;2023-01-25T01:23:49;103282.28;;;1.04;91.68
71504;BME280;59323;50.874;7.028;2023-01-25T01:26:17;103284.38;;;1.02;91.70
71504;BME280;59323;50.874;7.028;2023-01-25T01:28:44;103287.53;;;0.99;91.79
71504;BME280;59323;50.874;7.028;2023-01-25T01:31:15;103287.28;;;1.01;91.87
71504;BME280;59323;50.874;7.028;2023-01-25T01:33:41;103281.34;;;0.99;92.31
71504;BME280;59323;50.874;7.028;2023-01-25T01:36:12;103285.91;;;0.98;92.05
71504;BME280;59323;50.874;7.028;2023-01-25T01:38:37;103285.91;;;0.98;92.35
71504;BME280;59323;50.874;7.028;2023-01-25T01:41:03;103283.22;;;0.98;92.29
71504;BME280;59323;50.874;7.028;2023-01-25T01:43:28;103283.22;;;0.98;92.68
71504;BME280;59323;50.874;7.028;2023-01-25T01:45:59;103291.50;;;0.97;92.33
71504;BME280;59323;50.874;7.028;2023-01-25T01:53:52;103287.53;;;0.99;92.99
71504;BME280;59323;50.874;7.028;2023-01-25T01:56:30;103277.88;;;0.98;92.70
71504;BME280;59323;50.874;7.028;2023-01-25T01:58:57;103282.41;;;0.98;93.13
71504;BME280;59323;50.874;7.028;2023-01-25T02:01:23;103276.00;;;0.99;92.90
71504;BME280;59323;50.874;7.028;2023-01-25T02:03:49;103281.69;;;1.02;93.01
71504;BME280;59323;50.874;7.028;2023-01-25T02:08:48;103273.66;;;1.02;92.89
71504;BME280;59323;50.874;7.028;2023-01-25T02:11:14;103273.09;;;1.00;92.61
71504;BME280;59323;50.874;7.028;2023-01-25T02:13:40;103280.66;;;1.03;92.64
71504;BME280;59323;50.874;7.028;2023-01-25T02:16:05;103280.66;;;1.03;93.01
71504;BME280;59323;50.874;7.028;2023-01-25T02:18:38;103281.13;;;1.00;92.83
71504;BME280;59323;50.874;7.028;2023-01-25T02:21:03;103275.66;;;0.95;93.17
71504;BME280;59323;50.874;7.028;2023-01-25T02:23:54;103277.63;;;1.00;93.15
71504;BME280;59323;50.874;7.028;2023-01-25T02:26:22;103280.06;;;1.01;92.60
71504;BME280;59323;50.874;7.028;2023-01-25T02:28:51;103277.41;;;1.01;93.62
71504;BME280;59323;50.874;7.028;2023-01-25T02:31:19;103271.00;;;1.02;92.99
71504;BME280;59323;50.874;7.028;2023-01-25T02:33:44;103275.75;;;1.00;93.46
71504;BME280;59323;50.874;7.028;2023-01-25T02:36:17;103271.47;;;0.99;92.82
71504;BME280;59323;50.874;7.028;2023-01-25T02:38:56;103257.25;;;0.99;92.73
71504;BME280;59323;50.874;7.028;2023-01-25T02:41:31;103260.75;;;0.99;93.11
71504;BME280;59323;50.874;7.028;2023-01-25T02:43:59;103262.38;;;1.00;92.80
71504;BME280;59323;50.874;7.028;2023-01-25T02:46:30;103259.47;;;1.02;92.47
71504;BME280;59323;50.874;7.028;2023-01-25T02:48:57;103260.75;;;0.99;92.68
71504;BME280;59323;50.874;7.028;2023-01-25T02:51:25;103255.88;;;0.96;92.98
71504;BME280;59323;50.874;7.028;2023-01-25T02:53:51;103256.94;;;0.95;93.04
71504;BME280;59323;50.874;7.028;2023-01-25T02:56:17;103254.25;;;0.95;93.19
71504;BME280;59323;50.874;7.028;2023-01-25T02:58:43;103251.00;;;0.93;93.36
71504;BME280;59323;50.874;7.028;2023-01-25T03:01:11;103249.94;;;0.94;93.58
71504;BME280;59323;50.874;7.028;2023-01-25T03:03:36;103247.75;;;0.91;93.24
71504;BME280;59323;50.874;7.028;2023-01-25T03:06:02;103251.13;;;0.86;94.04
71504;BME280;59323;50.874;7.028;2023-01-25T03:08:27;103252.19;;;0.85;94.31
71504;BME280;59323;50.874;7.028;2023-01-25T03:11:00;103249.75;;;0.84;93.90
71504;BME280;59323;50.874;7.028;2023-01-25T03:13:26;103256.25;;;0.88;94.14
71504;BME280;59323;50.874;7.028;2023-01-25T03:15:57;103256.72;;;0.85;93.95
71504;BME280;59323;50.874;7.028;2023-01-25T03:18:23;103252.53;;;0.89;93.60
71504;BME280;59323;50.874;7.028;2023-01-25T03:20:48;103248.22;;;0.88;94.01
71504;BME280;59323;50.874;7.028;2023-01-25T03:23:14;103252.19;;;0.85;93.71
71504;BME280;59323;50.874;7.028;2023-01-25T03:25:39;103247.31;;;0.82;93.76
71504;BME280;59323;50.874;7.028;2023-01-25T03:28:04;103248.59;;;0.80;94.24
71504;BME280;59323;50.874;7.028;2023-01-25T03:30:30;103242.91;;;0.76;94.39
71504;BME280;59323;50.874;7.028;2023-01-25T03:32:55;103246.38;;;0.77;94.37
71504;BME280;59323;50.874;7.028;2023-01-25T03:35:20;103250.69;;;0.78;94.14
71504;BME280;59323;50.874;7.028;2023-01-25T03:37:45;103255.47;;;0.76;94.01
71504;BME280;59323;50.874;7.028;2023-01-25T03:40:11;103251.75;;;0.77;94.05
71504;BME280;59323;50.874;7.028;2023-01-25T03:42:36;103248.50;;;0.75;94.61
71504;BME280;59323;50.874;7.028;2023-01-25T03:45:02;103252.44;;;0.72;95.06
71504;BME280;59323;50.874;7.028;2023-01-25T03:47:27;103248.97;;;0.72;94.79
71504;BME280;59323;50.874;7.028;2023-01-25T03:49:52;103249.78;;;0.72;95.02
71504;BME280;59323;50.874;7.028;2023-01-25T03:52:18;103241.50;;;0.74;95.62
71504;BME280;59323;50.874;7.028;2023-01-25T03:54:43;103243.38;;;0.73;94.94
71504;BME280;59323;50.874;7.028;2023-01-25T03:57:08;103238.13;;;0.78;94.80
71504;BME280;59323;50.874;7.028;2023-01-25T03:59:34;103232.44;;;0.75;95.02
71504;BME280;59323;50.874;7.028;2023-01-25T04:01:59;103239.66;;;0.74;95.08
71504;BME280;59323;50.874;7.028;2023-01-25T04:04:24;103239.41;;;0.76;94.77
71504;BME280;59323;50.874;7.028;2023-01-25T04:06:50;103238.34;;;0.77;94.25
71504;BME280;59323;50.874;7.028;2023-01-25T04:09:15;103236.16;;;0.74;94.18
71504;BME280;59323;50.874;7.028;2023-01-25T04:11:40;103233.47;;;0.74;95.33
71504;BME280;59323;50.874;7.028;2023-01-25T04:14:06;103221.38;;;0.71;94.96
71504;BME280;59323;50.874;7.028;2023-01-25T04:16:31;103224.06;;;0.71;95.24
71504;BME280;59323;50.874;7.028;2023-01-25T04:18:56;103211.97;;;0.69;95.37
71504;BME280;59323;50.874;7.028;2023-01-25T04:21:22;103204.75;;;0.69;95.22
71504;BME280;59323;50.874;7.028;2023-01-25T04:23:47;103211.25;;;0.73;95.28
71504;BME280;59323;50.874;7.028;2023-01-25T04:26:13;103203.22;;;0.73;94.86
71504;BME280;59323;50.874;7.028;2023-01-25T04:28:38;103205.09;;;0.73;95.02
71504;BME280;59323;50.874;7.028;2023-01-25T04:31:04;103201.84;;;0.71;95.37
71504;BME280;59323;50.874;7.028;2023-01-25T04:33:33;103194.88;;;0.70;94.88
71504;BME280;59323;50.874;7.028;2023-01-25T04:36:00;103191.94;;;0.71;94.78
71504;BME280;59323;50.874;7.028;2023-01-25T04:38:26;103191.63;;;0.68;95.28
71504;BME280;59323;50.874;7.028;2023-01-25T04:40:51;103192.66;;;0.67;95.56
71504;BME280;59323;50.874;7.028;2023-01-25T04:43:18;103185.69;;;0.66;95.72
71504;BME280;59323;50.874;7.028;2023-01-25T04:45:44;103181.16;;;0.66;95.10
71504;BME280;59323;50.874;7.028;2023-01-25T04:48:11;103186.59;;;0.71;94.80
71504;BME280;59323;50.874;7.028;2023-01-25T04:50:41;103183.94;;;0.71;95.12
71504;BME280;59323;50.874;7.028;2023-01-25T04:53:08;103182.31;;;0.70;95.00
71504;BME280;59323;50.874;7.028;2023-01-25T04:55:34;103184.16;;;0.70;94.97
71504;BME280;59323;50.874;7.028;2023-01-25T04:58:00;103178.56;;;0.71;95.03
71504;BME280;59323;50.874;7.028;2023-01-25T05:00:26;103180.44;;;0.71;94.86
71504;BME280;59323;50.874;7.028;2023-01-25T05:02:53;103170.22;;;0.68;95.00
71504;BME280;59323;50.874;7.028;2023-01-25T05:05:18;103173.47;;;0.70;94.37
71504;BME280;59323;50.874;7.028;2023-01-25T05:07:43;103176.94;;;0.70;94.82
71504;BME280;59323;50.874;7.028;2023-01-25T05:10:09;103183.44;;;0.74;94.80
71504;BME280;59323;50.874;7.028;2023-01-25T05:12:35;103183.94;;;0.71;94.79
71504;BME280;59323;50.874;7.028;2023-01-25T05:15:00;103176.94;;;0.70;94.26
71504;BME280;59323;50.874;7.028;2023-01-25T05:17:25;103168.69;;;0.72;94.70
71504;BME280;59323;50.874;7.028;2023-01-25T05:19:50;103174.03;;;0.72;94.92
71504;BME280;59323;50.874;7.028;2023-01-25T05:22:17;103167.41;;;0.74;94.21
71504;BME280;59323;50.874;7.028;2023-01-25T05:24:45;103166.00;;;0.72;94.41
71504;BME280;59323;50.874;7.028;2023-01-25T05:27:13;103168.22;;;0.75;93.99
71504;BME280;59323;50.874;7.028;2023-01-25T05:29:40;103170.06;;;0.74;93.99
71504;BME280;59323;50.874;7.028;2023-01-25T05:32:14;103161.22;;;0.74;94.10
71504;BME280;59323;50.874;7.028;2023-01-25T05:34:40;103164.97;;;0.73;94.87
71504;BME280;59323;50.874;7.028;2023-01-25T05:37:07;103160.66;;;0.72;94.86
71504;BME280;59323;50.874;7.028;2023-01-25T05:39:33;103156.34;;;0.71;94.78
71504;BME280;59323;50.874;7.028;2023-01-25T05:41:58;103159.28;;;0.69;94.94
71504;BME280;59323;50.874;7.028;2023-01-25T05:44:24;103154.59;;;0.64;95.19
71504;BME280;59323;50.874;7.028;2023-01-25T05:46:49;103152.97;;;0.63;95.49
71504;BME280;59323;50.874;7.028;2023-01-25T05:49:15;103160.78;;;0.65;94.88
71504;BME280;59323;50.874;7.028;2023-01-25T05:51:41;103152.63;;;0.60;95.09
71504;BME280;59323;50.874;7.028;2023-01-25T05:54:10;103158.47;;;0.57;95.24
71504;BME280;59323;50.874;7.028;2023-01-25T05:56:36;103150.69;;;0.55;95.87
71504;BME280;59323;50.874;7.028;2023-01-25T05:59:01;103157.06;;;0.54;96.38
71504;BME280;59323;50.874;7.028;2023-01-25T06:01:27;103147.44;;;0.53;96.07
71504;BME280;59323;50.874;7.028;2023-01-25T06:03:52;103142.88;;;0.54;95.89
71504;BME280;59323;50.874;7.028;2023-01-25T06:06:18;103140.69;;;0.51;95.92
71504;BME280;59323;50.874;7.028;2023-01-25T06:08:46;103150.00;;;0.48;96.50
71504;BME280;59323;50.874;7.028;2023-01-25T06:11:14;103148.13;;;0.49;96.63
71504;BME280;59323;50.874;7.028;2023-01-25T06:13:40;103148.38;;;0.47;96.81
71504;BME280;59323;50.874;7.028;2023-01-25T06:16:06;103154.06;;;0.51;95.89
71504;BME280;59323;50.874;7.028;2023-01-25T06:18:32;103146.28;;;0.49;96.25
71504;BME280;59323;50.874;7.028;2023-01-25T06:20:59;103148.72;;;0.51;96.20
71504;BME280;59323;50.874;7.028;2023-01-25T06:23:25;103144.88;;;0.47;97.08
71504;BME280;59323;50.874;7.028;2023-01-25T06:25:51;103136.88;;;0.47;96.43
71504;BME280;59323;50.874;7.028;2023-01-25T06:28:23;103132.81;;;0.44;96.54
71504;BME280;59323;50.874;7.028;2023-01-25T06:30:48;103138.16;;;0.44;96.96
71504;BME280;59323;50.874;7.028;2023-01-25T06:33:14;103132.00;;;0.44;97.45
71504;BME280;59323;50.874;7.028;2023-01-25T06:35:39;103133.63;;;0.45;96.80
71504;BME280;59323;50.874;7.028;2023-01-25T06:38:05;103133.38;;;0.46;96.92
71504;BME280;59323;50.874;7.028;2023-01-25T06:40:31;103124.88;;;0.49;96.64
71504;BME280;59323;50.874;7.028;2023-01-25T06:43:09;103123.25;;;0.48;96.60
71504;BME280;59323;50.874;7.028;2023-01-25T06:45:35;103132.09;;;0.49;97.25
71504;BME280;59323;50.874;7.028;2023-01-25T06:48:00;103123.50;;;0.47;97.22
71504;BME280;59323;50.874;7.028;2023-01-25T06:50:26;103123.25;;;0.48;97.01
71504;BME280;59323;50.874;7.028;2023-01-25T06:52:54;103121.38;;;0.49;96.38
71504;BME280;59323;50.874;7.028;2023-01-25T06:55:20;103135.34;;;0.51;96.18
71504;BME280;59323;50.874;7.028;2023-01-25T06:57:46;103131.84;;;0.50;97.06
71504;BME280;59323;50.874;7.028;2023-01-25T07:00:12;103139.31;;;0.48;96.61
71504;BME280;59323;50.874;7.028;2023-01-25T07:02:38;103124.53;;;0.46;96.92
71504;BME280;59323;50.874;7.028;2023-01-25T07:05:03;103136.06;;;0.46;97.01
71504;BME280;59323;50.874;7.028;2023-01-25T07:07:29;103139.31;;;0.48;97.04
71504;BME280;59323;50.874;7.028;2023-01-25T07:09:54;103139.31;;;0.48;97.22
71504;BME280;59323;50.874;7.028;2023-01-25T07:12:20;103149.44;;;0.46;96.93
71504;BME280;59323;50.874;7.028;2023-01-25T07:14:46;103141.41;;;0.46;97.25
71504;BME280;59323;50.874;7.028;2023-01-25T07:17:13;103143.25;;;0.46;97.16
71504;BME280;59323;50.874;7.028;2023-01-25T07:19:39;103144.53;;;0.43;96.71
71504;BME280;59323;50.874;7.028;2023-01-25T07:22:04;103140.59;;;0.46;97.47
71504;BME280;59323;50.874;7.028;2023-01-25T07:24:29;103140.34;;;0.47;96.91
71504;BME280;59323;50.874;7.028;2023-01-25T07:26:55;103144.88;;;0.47;97.34
71504;BME280;59323;50.874;7.028;2023-01-25T07:29:20;103137.44;;;0.49;96.97
71504;BME280;59323;50.874;7.028;2023-01-25T07:31:46;103139.06;;;0.50;97.16
71504;BME280;59323;50.874;7.028;2023-01-25T07:34:12;103144.50;;;0.55;96.30
71504;BME280;59323;50.874;7.028;2023-01-25T07:36:38;103143.69;;;0.54;97.07
71504;BME280;59323;50.874;7.028;2023-01-25T07:39:04;103146.63;;;0.53;97.14
71504;BME280;59323;50.874;7.028;2023-01-25T07:41:30;103135.34;;;0.51;96.70
71504;BME280;59323;50.874;7.028;2023-01-25T07:43:57;103134.75;;;0.49;96.63
71504;BME280;59323;50.874;7.028;2023-01-25T07:46:22;103128.13;;;0.51;97.74
71504;BME280;59323;50.874;7.028;2023-01-25T07:48:50;103133.47;;;0.51;96.85
71504;BME280;59323;50.874;7.028;2023-01-25T07:51:18;103128.13;;;0.51;97.03
71504;BME280;59323;50.874;7.028;2023-01-25T07:53:48;103139.41;;;0.53;97.33
71504;BME280;59323;50.874;7.028;2023-01-25T07:56:15;103138.34;;;0.54;96.78
71504;BME280;59323;50.874;7.028;2023-01-25T07:58:41;103138.81;;;0.51;96.76
71504;BME280;59323;50.874;7.028;2023-01-25T08:01:12;103135.91;;;0.53;97.09
71504;BME280;59323;50.874;7.028;2023-01-25T08:03:38;103143.13;;;0.52;97.15
71504;BME280;59323;50.874;7.028;2023-01-25T08:06:04;103138.34;;;0.54;97.03
71504;BME280;59323;50.874;7.028;2023-01-25T08:08:34;103140.78;;;0.56;97.23
71504;BME280;59323;50.874;7.028;2023-01-25T08:11:05;103132.53;;;0.57;97.03
71504;BME280;59323;50.874;7.028;2023-01-25T08:13:31;103126.13;;;0.58;96.90
71504;BME280;59323;50.874;7.028;2023-01-25T08:15:56;103128.31;;;0.61;96.51
71504;BME280;59323;50.874;7.028;2023-01-25T08:18:22;103122.63;;;0.58;97.18
71504;BME280;59323;50.874;7.028;2023-01-25T08:20:47;103132.06;;;0.60;96.88
71504;BME280;59323;50.874;7.028;2023-01-25T08:23:13;103135.19;;;0.57;96.78
71504;BME280;59323;50.874;7.028;2023-01-25T08:25:38;103128.22;;;0.56;96.75
71504;BME280;59323;50.874;7.028;2023-01-25T08:28:04;103130.91;;;0.56;97.27
71504;BME280;59323;50.874;7.028;2023-01-25T08:30:30;103135.44;;;0.56;97.16
71504;BME280;59323;50.874;7.028;2023-01-25T08:32:55;103127.06;;;0.52;97.47
71504;BME280;59323;50.874;7.028;2023-01-25T08:35:20;103126.50;;;0.50;97.60
71504;BME280;59323;50.874;7.028;2023-01-25T08:37:46;103125.22;;;0.53;97.33
71504;BME280;59323;50.874;7.028;2023-01-25T08:40:11;103123.94;;;0.55;96.96
71504;BME280;59323;50.874;7.028;2023-01-25T08:42:38;103116.63;;;0.51;97.72
71504;BME280;59323;50.874;7.028;2023-01-25T08:45:04;103120.69;;;0.53;97.80
71504;BME280;59323;50.874;7.028;2023-01-25T08:47:29;103111.13;;;0.57;97.41
71504;BME280;59323;50.874;7.028;2023-01-25T08:49:55;103117.53;;;0.56;96.99
71504;BME280;59323;50.874;7.028;2023-01-25T08:52:20;103112.75;;;0.58;96.80
71504;BME280;59323;50.874;7.028;2023-01-25T08:54:45;103115.09;;;0.55;97.25
71504;BME280;59323;50.874;7.028;2023-01-25T08:57:11;103112.41;;;0.55;97.57
71504;BME280;59323;50.874;7.028;2023-01-25T08:59:36;103119.06;;;0.52;98.04
71504;BME280;59323;50.874;7.028;2023-01-25T09:02:01;103117.75;;;0.55;98.08
71504;BME280;59323;50.874;7.028;2023-01-25T09:04:27;103116.94;;;0.54;97.62
71504;BME280;59323;50.874;7.028;2023-01-25T09:06:53;103115.09;;;0.55;98.08
71504;BME280;59323;50.874;7.028;2023-01-25T09:09:19;103107.88;;;0.55;97.96
71504;BME280;59323;50.874;7.028;2023-01-25T09:11:46;103106.00;;;0.56;97.94
71504;BME280;59323;50.874;7.028;2023-01-25T09:14:12;103106.25;;;0.54;97.88
71504;BME280;59323;50.874;7.028;2023-01-25T09:16:37;103110.56;;;0.55;97.55
71504;BME280;59323;50.874;7.028;2023-01-25T09:19:04;103099.03;;;0.55;97.73
71504;BME280;59323;50.874;7.028;2023-01-25T09:21:32;103105.53;;;0.59;98.09
71504;BME280;59323;50.874;7.028;2023-01-25T09:23:59;103106.59;;;0.58;97.45
71504;BME280;59323;50.874;7.028;2023-01-25T09:26:24;103098.00;;;0.56;98.30
71504;BME280;59323;50.874;7.028;2023-01-25T09:28:51;103090.78;;;0.56;97.57
71504;BME280;59323;50.874;7.028;2023-01-25T09:31:18;103092.97;;;0.59;97.86
71504;BME280;59323;50.874;7.028;2023-01-25T09:33:44;103087.97;;;0.63;97.80
71504;BME280;59323;50.874;7.028;2023-01-25T09:36:09;103090.41;;;0.64;97.59
71504;BME280;59323;50.874;7.028;2023-01-25T09:38:35;103086.69;;;0.66;97.42
71504;BME280;59323;50.874;7.028;2023-01-25T09:41:06;103086.69;;;0.66;97.34
71504;BME280;59323;50.874;7.028;2023-01-25T09:49:30;103078.88;;;0.64;97.36
71504;BME280;59323;50.874;7.028;2023-01-25T09:55:11;103071.91;;;0.63;97.17
71504;BME280;59323;50.874;7.028;2023-01-25T09:57:38;103070.53;;;0.60;97.34
71504;BME280;59323;50.874;7.028;2023-01-25T10:00:15;103075.88;;;0.60;97.09
71504;BME280;59323;50.874;7.028;2023-01-25T10:05:31;103056.00;;;0.56;96.99
71504;BME280;59323;50.874;7.028;2023-01-25T10:08:25;103061.59;;;0.55;97.68
71504;BME280;59323;50.874;7.028;2023-01-25T10:10:59;103056.97;;;0.50;97.63
71504;BME280;59323;50.874;7.028;2023-01-25T10:13:28;103050.56;;;0.51;97.91
71504;BME280;59323;50.874;7.028;2023-01-25T10:16:01;103046.59;;;0.54;97.95
71504;BME280;59323;50.874;7.028;2023-01-25T10:18:40;103050.91;;;0.55;97.47
71504;BME280;59323;50.874;7.028;2023-01-25T10:21:20;103059.25;;;0.58;97.75
71504;BME280;59323;50.874;7.028;2023-01-25T10:29:39;103041.25;;;0.54;97.93
71504;BME280;59323;50.874;7.028;2023-01-25T10:32:18;103035.91;;;0.54;97.25
71504;BME280;59323;50.874;7.028;2023-01-25T10:34:49;103030.78;;;0.52;97.88
71504;BME280;59323;50.874;7.028;2023-01-25T10:37:24;103030.53;;;0.54;97.92
71504;BME280;59323;50.874;7.028;2023-01-25T10:39:57;103027.06;;;0.53;98.39
71504;BME280;59323;50.874;7.028;2023-01-25T10:42:25;103019.84;;;0.54;97.85
71504;BME280;59323;50.874;7.028;2023-01-25T10:44:52;103016.44;;;0.58;97.80
71504;BME280;59323;50.874;7.028;2023-01-25T10:47:28;103010.78;;;0.55;97.84
71504;BME280;59323;50.874;7.028;2023-01-25T10:49:57;103014.50;;;0.54;98.32
71504;BME280;59323;50.874;7.028;2023-01-25T10:52:31;103003.00;;;0.53;98.31
71504;BME280;59323;50.874;7.028;2023-01-25T10:55:19;103004.38;;;0.56;98.02
71504;BME280;59323;50.874;7.028;2023-01-25T10:57:49;103007.84;;;0.56;98.34
71504;BME280;59323;50.874;7.028;2023-01-25T11:00:39;103011.09;;;0.58;98.56
71504;BME280;59323;50.874;7.028;2023-01-25T11:03:05;102999.91;;;0.61;98.37
71504;BME280;59323;50.874;7.028;2023-01-25T11:05:41;102996.19;;;0.62;97.92
71504;BME280;59323;50.874;7.028;2023-01-25T11:08:24;102988.16;;;0.62;98.22
71504;BME280;59323;50.874;7.028;2023-01-25T11:10:50;102991.88;;;0.61;97.99
71504;BME280;59323;50.874;7.028;2023-01-25T11:13:32;102986.53;;;0.61;97.55
71504;BME280;59323;50.874;7.028;2023-01-25T11:16:22;102989.78;;;0.63;98.25
71504;BME280;59323;50.874;7.028;2023-01-25T11:18:51;102986.06;;;0.64;98.09
71504;BME280;59323;50.874;7.028;2023-01-25T11:21:20;102988.16;;;0.62;97.87
71504;BME280;59323;50.874;7.028;2023-01-25T11:26:33;102978.50;;;0.61;98.35
71504;BME280;59323;50.874;7.028;2023-01-25T11:29:09;102972.69;;;0.64;97.85
71504;BME280;59323;50.874;7.028;2023-01-25T11:31:35;102974.34;;;0.66;98.22
71504;BME280;59323;50.874;7.028;2023-01-25T11:34:01;102973.03;;;0.68;97.77
71504;BME280;59323;50.874;7.028;2023-01-25T11:44:41;102946.59;;;0.72;98.02
71504;BME280;59323;50.874;7.028;2023-01-25T11:47:22;102942.06;;;0.72;97.47
71504;BME280;59323;50.874;7.028;2023-01-25T11:50:33;102934.59;;;0.74;97.94
71504;BME280;59323;50.874;7.028;2023-01-25T11:58:57;102919.38;;;0.75;98.11
71504;BME280;59323;50.874;7.028;2023-01-25T12:07:01;102896.81;;;0.71;98.15
71504;BME280;59323;50.874;7.028;2023-01-25T12:10:03;102884.75;;;0.68;97.95
71504;BME280;59323;50.874;7.028;2023-01-25T12:21:23;102859.38;;;0.71;98.93
71504;BME280;59323;50.874;7.028;2023-01-25T12:24:07;102861.00;;;0.72;98.50
71504;BME280;59323;50.874;7.028;2023-01-25T12:31:55;102841.84;;;0.80;98.11
71504;BME280;59323;50.874;7.028;2023-01-25T12:34:32;102842.34;;;0.77;97.81
71504;BME280;59323;50.874;7.028;2023-01-25T12:37:10;102827.81;;;0.73;98.50
71504;BME280;59323;50.874;7.028;2023-01-25T12:39:45;102811.72;;;0.68;98.69
71504;BME280;59323;50.874;7.028;2023-01-25T12:42:17;102814.13;;;0.69;99.16
71504;BME280;59323;50.874;7.028;2023-01-25T12:45:11;102799.22;;;0.73;98.86
71504;BME280;59323;50.874;7.028;2023-01-25T12:47:49;102794.66;;;0.74;99.39
71504;BME280;59323;50.874;7.028;2023-01-25T12:50:22;102785.59;;;0.75;98.65
71504;BME280;59323;50.874;7.028;2023-01-25T12:52:53;102786.41;;;0.75;98.52
71504;BME280;59323;50.874;7.028;2023-01-25T12:55:20;102788.81;;;0.77;98.39
71504;BME280;59323;50.874;7.028;2023-01-25T13:00:43;102775.00;;;0.85;98.56
71504;BME280;59323;50.874;7.028;2023-01-25T13:06:33;102760.81;;;0.84;98.30
71504;BME280;59323;50.874;7.028;2023-01-25T13:11:47;102757.91;;;0.86;98.15
71504;BME280;59323;50.874;7.028;2023-01-25T13:19:18;102738.66;;;0.89;97.98
71504;BME280;59323;50.874;7.028;2023-01-25T13:21:45;102728.22;;;0.87;98.39
71504;BME280;59323;50.874;7.028;2023-01-25T13:24:18;102724.97;;;0.85;98.52
71504;BME280;59323;50.874;7.028;2023-01-25T13:31:58;102713.47;;;0.85;98.32
71504;BME280;59323;50.874;7.028;2023-01-25T13:36:58;102710.72;;;0.80;98.39
71504;BME280;59323;50.874;7.028;2023-01-25T13:42:18;102699.47;;;0.78;98.61
71504;BME280;59323;50.874;7.028;2023-01-25T13:44:47;102695.97;;;0.77;98.98
71504;BME280;59323;50.874;7.028;2023-01-25T13:47:23;102686.84;;;0.73;98.30
71504;BME280;59323;50.874;7.028;2023-01-25T13:51:10;102682.78;;;0.71;98.28
71504;BME280;59323;50.874;7.028;2023-01-25T13:55:40;102678.19;;;0.66;98.78
71504;BME280;59323;50.874;7.028;2023-01-25T13:58:28;102676.31;;;0.67;99.26
71504;BME280;59323;50.874;7.028;2023-01-25T14:01:02;102670.97;;;0.67;98.33
71504;BME280;59323;50.874;7.028;2023-01-25T14:03:57;102668.56;;;0.65;98.52
71504;BME280;59323;50.874;7.028;2023-01-25T14:06:28;102670.16;;;0.66;99.32
71504;BME280;59323;50.874;7.028;2023-01-25T14:08:57;102673.06;;;0.64;99.24
71504;BME280;59323;50.874;7.028;2023-01-25T14:11:26;102678.91;;;0.61;99.51
71504;BME280;59323;50.874;7.028;2023-01-25T14:14:48;102675.19;;;0.62;99.72
71504;BME280;59323;50.874;7.028;2023-01-25T14:19:38;102664.97;;;0.59;99.70
71504;BME280;59323;50.874;7.028;2023-01-25T14:22:27;102662.06;;;0.61;99.33
71504;BME280;59323;50.874;7.028;2023-01-25T14:25:14;102654.84;;;0.61;100.00
71504;BME280;59323;50.874;7.028;2023-01-25T14:27:49;102660.44;;;0.60;99.26
71504;BME280;59323;50.874;7.028;2023-01-25T14:30:31;102648.44;;;0.62;99.95
71504;BME280;59323;50.874;7.028;2023-01-25T14:33:00;102653.53;;;0.64;99.60
71504;BME280;59323;50.874;7.028;2023-01-25T14:37:56;102650.03;;;0.63;99.28
71504;BME280;59323;50.874;7.028;2023-01-25T14:40:22;102642.28;;;0.62;99.22
71504;BME280;59323;50.874;7.028;2023-01-25T14:42:49;102649.72;;;0.60;99.03
71504;BME280;59323;50.874;7.028;2023-01-25T14:45:15;102642.22;;;0.57;100.00